Dallas, TX (75201)

6:38 PM CDT on September 02, 2014 (GMT -0500)
Bryan Parkway | Change Station
CLOSE
Current Station
Personal Weather Station
Location: Dallas, TX
Elevation: 525 ft
Nearby Weather Stations

Elev 525 ft 32.81 °N, 96.76 °W | Updated 0 second ago

Scattered Clouds
Scattered Clouds
93.7 °F
Feels Like 98 °F
N
4.2
Wind Variable Wind from SE
Gusts 17.7 mph

Today
High -- | Low -- °F
--% Chance of Precip.
Yesterday
High -- | Low -- °F
Precip. -- in
7:02 AM 7:50 PM
First Quarter, 56% visible
Pressure 29.86 in
Visibility 10.0 miles
Clouds Scattered Clouds 6500 ft
Scattered Clouds 25000 ft
Heat Index 98 °F
Dew Point 67 °F
Humidity 42%
Rainfall 0.00 in
Snow Depth Not available.
UV 2 out of 12
Pollen 11.00 out of 12
Ozone Good
PM2.5 Good
Flu Activity Not available.
METAR KDAL 022253Z 14013KT 10SM SCT065 SCT250 35/20 A2988 RMK AO2 SLP109 T03500200

More Conditions Fewer Conditions

Pressure 29.86 in
Visibility 10.0 miles
Clouds Scattered Clouds 6500 ft
Scattered Clouds 25000 ft
Heat Index 98 °F
Dew Point 67 °F
Humidity 42%
Rainfall 0.00 in
Snow Depth Not available.
UV 2 out of 12
Pollen 11.00 out of 12
Ozone Good
PM2.5 Good
Flu Activity Not available.
METAR KDAL 022253Z 14013KT 10SM SCT065 SCT250 35/20 A2988 RMK AO2 SLP109 T03500200

More Conditions Fewer Conditions

Nowcast | as of 4:33 PM CDT on September 2, 2014

Isolated showers and thunderstorms were along and south of a Canton...to Hillsboro...to Comanche line and were slowly drifting north around 10 mph. Any thunderstorm this afternoon will be capable of producing brief periods of heavy rain...cloud to ground lightning...and gusty winds. Otherwise...skies range from partly to mostly sunny across much of north and central Texas. Temperatures were in the 90s with southeasterly winds around 15 mph.

×

10-Day Weather Forecast

Almanac

Astronomy

Sep. 02, 2014 Rise Set
Actual Time 7:02 AM CDT 7:50 PM CDT
Civil Twilight 6:37 AM CDT 8:15 PM CDT
Nautical Twilight 6:07 AM CDT 8:45 PM CDT
Astronomical Twilight 5:37 AM CDT 9:15 PM CDT
Moon 2:25 PM CDT 12:16 AM CDT
Length of Visible Light 13h 38m
Length of Day
12h 48m
Tomorrow will be 1m 56s shorter.
First Quarter, 56% of the Moon is Illuminated
Today
First Quarter
Sep 8
Full
Sep 15
Last Quarter
Sep 24
New
Oct 1
First Quarter

Today's Extremes

State Highs State Lows

Community

WunderPhotos

Upload Photos

1,749,799 photos uploaded!

Nearby

Air Quality

  Air Quality AQ Index Pollutant
Yesterday Good
PM2.5
Yesterday Good
OZONE
Current Good
OZONE
Current Good
PM2.5
Tuesday Good
OZONE
Tuesday Good
PM10
Wednesday Good
OZONE
Wednesday Good
PM10
Thursday Good
OZONE
Thursday Good
PM10
Friday Good
OZONE
Friday Good
PM10

Snow Depth

Station Depth Elevation
No new snow has been reported.

Earthquake Activity

City Distance Mag. Time & Date
No recent earthquake activity has been reported nearby.
Minimum magnitude displayed is 2.5.

Coastal Water Temperatures

Place Temperature
No Stations Reporting

Nearby Weather Stations